OOMS/MCT METAR and TAF weather

Enter ICAO airport designator
Station Type Date Time Source
OOMS METAR 2019/05/27 08:50 UTC NOAA

OOMS 270850Z 35010KT CAVOK 42/08 Q1004 NOSIG


Station Type Date Time Source
OOMS Decoded METAR 2019/05/27 08:50 UTC NOAA

Seeb, International Airport, Oman (OOMS) 23-35N 058-17E 17M
May 27, 2019 - 04:50 AM EDT / 2019.05.27 0850 UTC
Wind: from the N (350 degrees) at 12 MPH (10 KT):0
Visibility: greater than 7 mile(s):0
Temperature: 107 F (42 C)
Dew Point: 46 F (8 C)
Relative Humidity: 13%
Pressure (altimeter): 29.65 in. Hg (1004 hPa)
ob: OOMS 270850Z 35010KT CAVOK 42/08 Q1004 NOSIG
cycle: 9

Station Type Date Time Source
OOMS TAF 2019/05/27 06:18 UTC NOAA

TAF TAF OOMS 270500Z 2706/2812 35012KT 9000 NSC
BECMG 2715/2717 VRB02KT
TEMPO 2721/2803 22014KT
BECMG 2806/2808 36010KT

Example: see airport list